Time;durP1;ratioP1;P1;durP2;ratioP2;P2;SDS_P1;SDS_P2;PMS_P1;PMS_P2;Temp;Humidity;BMP_temperature;BMP_pressure;BME280_temperature;BME280_humidity;BME280_pressure;Samples;Min_cycle;Max_cycle;Signal;HPM_P1;HPM_P2
2021/10/30 00:00:18;;;;;;;10.77;7.28;;;11.50;99.90;;;;;;5050496;28;20036;-92
2021/10/30 00:02:44;;;;;;;8.48;7.40;;;11.50;99.90;;;;;;5035727;28;20035;-92
2021/10/30 00:05:13;;;;;;;14.98;7.70;;;11.40;99.90;;;;;;5035341;28;20025;-92
2021/10/30 00:07:40;;;;;;;12.77;7.53;;;11.40;99.90;;;;;;5052763;28;20025;-93
2021/10/30 00:10:07;;;;;;;10.45;7.53;;;11.40;99.90;;;;;;5039090;28;20108;-92
2021/10/30 00:12:33;;;;;;;11.45;6.80;;;11.40;99.90;;;;;;5042929;28;20116;-93
2021/10/30 00:14:58;;;;;;;8.70;6.25;;;11.40;99.90;;;;;;5051949;28;20032;-92
2021/10/30 00:17:24;;;;;;;9.65;7.00;;;11.40;99.90;;;;;;5044700;28;20044;-93
2021/10/30 00:19:49;;;;;;;9.10;6.85;;;11.40;99.90;;;;;;5051767;28;20079;-92
2021/10/30 00:22:16;;;;;;;11.98;7.80;;;11.40;99.90;;;;;;5043974;28;20503;-92
2021/10/30 00:24:42;;;;;;;12.13;7.65;;;11.40;99.90;;;;;;5060295;28;20031;-92
2021/10/30 00:27:10;;;;;;;10.88;6.95;;;11.40;99.90;;;;;;5030409;28;20026;-92
2021/10/30 00:29:36;;;;;;;11.93;8.00;;;11.40;99.90;;;;;;5039198;28;20039;-92
2021/10/30 00:32:01;;;;;;;11.25;9.05;;;11.40;99.90;;;;;;5035795;28;20396;-92
2021/10/30 00:34:27;;;;;;;9.30;6.72;;;11.40;99.90;;;;;;5051812;28;20041;-92
2021/10/30 00:36:53;;;;;;;10.13;7.82;;;11.30;99.90;;;;;;5044074;28;20123;-93
2021/10/30 00:39:18;;;;;;;12.15;9.30;;;11.40;99.90;;;;;;5037775;28;20035;-92
2021/10/30 00:41:52;;;;;;;12.00;8.85;;;11.40;99.90;;;;;;5039458;28;20150;-92
2021/10/30 00:44:18;;;;;;;10.13;8.35;;;11.40;99.90;;;;;;5035514;28;20036;-92
2021/10/30 00:46:48;;;;;;;12.50;8.45;;;11.40;99.90;;;;;;5037964;28;20373;-92
2021/10/30 00:49:15;;;;;;;11.02;8.07;;;11.40;99.90;;;;;;5046380;28;20025;-92
2021/10/30 00:51:43;;;;;;;12.35;8.57;;;11.40;99.90;;;;;;5038278;28;20021;-91
2021/10/30 00:54:11;;;;;;;12.85;8.77;;;11.40;99.90;;;;;;5038250;28;20036;-90
2021/10/30 00:56:37;;;;;;;10.57;7.95;;;11.40;99.90;;;;;;5039180;28;20029;-92
2021/10/30 00:59:11;;;;;;;12.77;8.77;;;11.30;99.90;;;;;;5033605;28;20021;-91
2021/10/30 01:01:41;;;;;;;14.70;8.82;;;11.30;99.90;;;;;;5036131;28;20409;-92
2021/10/30 01:04:07;;;;;;;11.00;7.72;;;11.20;99.90;;;;;;5032143;28;20477;-91
2021/10/30 01:06:34;;;;;;;12.75;9.35;;;11.20;99.90;;;;;;5039764;28;20079;-91
2021/10/30 01:09:00;;;;;;;13.25;9.15;;;11.20;99.90;;;;;;5042257;28;20016;-91
2021/10/30 01:11:26;;;;;;;16.10;10.00;;;11.20;99.90;;;;;;5039879;28;20368;-91
2021/10/30 01:13:53;;;;;;;12.43;9.10;;;11.20;99.90;;;;;;5041064;28;20423;-91
2021/10/30 01:16:19;;;;;;;11.82;9.45;;;11.20;99.90;;;;;;5048616;28;20111;-91
2021/10/30 01:18:45;;;;;;;14.23;9.90;;;11.20;99.90;;;;;;5039867;28;20025;-90
2021/10/30 01:21:11;;;;;;;14.35;10.23;;;11.10;99.90;;;;;;5039385;28;20029;-90
2021/10/30 01:23:37;;;;;;;15.57;9.65;;;11.10;99.90;;;;;;5045756;28;20218;-90
2021/10/30 01:26:03;;;;;;;12.10;9.77;;;11.10;99.90;;;;;;5043378;28;20032;-90
2021/10/30 01:28:31;;;;;;;14.05;10.95;;;11.10;99.90;;;;;;5046205;28;20124;-90
2021/10/30 01:30:57;;;;;;;15.82;10.63;;;11.10;99.90;;;;;;5040858;28;20033;-90
2021/10/30 01:33:23;;;;;;;15.55;10.48;;;11.10;99.90;;;;;;5039836;28;20108;-91
2021/10/30 01:35:49;;;;;;;12.23;10.52;;;11.10;99.90;;;;;;5042914;28;20036;-90
2021/10/30 01:38:15;;;;;;;13.10;10.07;;;11.00;99.90;;;;;;5041254;28;20025;-89
2021/10/30 01:40:43;;;;;;;13.95;9.65;;;11.00;99.90;;;;;;5048997;28;20025;-89
2021/10/30 01:43:10;;;;;;;13.13;10.30;;;11.00;99.90;;;;;;5048318;28;20036;-91
2021/10/30 01:45:35;;;;;;;14.27;10.15;;;11.00;99.90;;;;;;5042230;28;20492;-91
2021/10/30 01:48:02;;;;;;;12.13;10.25;;;11.00;99.90;;;;;;5041019;28;20025;-90
2021/10/30 01:50:29;;;;;;;12.65;10.07;;;10.90;99.90;;;;;;5040258;28;20033;-91
2021/10/30 01:52:59;;;;;;;15.63;10.00;;;10.90;99.90;;;;;;5043645;28;20031;-90
2021/10/30 01:55:26;;;;;;;14.25;10.00;;;10.90;99.90;;;;;;5037094;28;20092;-91
2021/10/30 01:57:52;;;;;;;13.30;10.48;;;10.80;99.90;;;;;;5041577;28;20393;-91
2021/10/30 02:00:18;;;;;;;14.75;10.02;;;10.80;99.90;;;;;;5052775;28;20040;-91
2021/10/30 02:02:44;;;;;;;16.58;11.05;;;10.80;99.90;;;;;;5042024;28;20033;-92
2021/10/30 02:05:10;;;;;;;14.15;10.45;;;10.70;99.90;;;;;;5039422;28;20032;-90
2021/10/30 02:07:36;;;;;;;14.65;10.00;;;10.70;99.90;;;;;;5045137;28;20056;-92
2021/10/30 02:10:03;;;;;;;17.02;10.90;;;10.60;99.90;;;;;;5045147;28;20057;-89
2021/10/30 02:12:29;;;;;;;16.50;10.13;;;10.60;99.90;;;;;;5043515;28;20025;-90
2021/10/30 02:14:55;;;;;;;14.77;9.98;;;10.50;99.90;;;;;;5043669;28;20487;-90
2021/10/30 02:17:21;;;;;;;16.60;10.05;;;10.50;99.90;;;;;;5044356;28;20171;-90
2021/10/30 02:19:46;;;;;;;14.38;9.85;;;10.50;99.90;;;;;;5048453;28;20284;-91
2021/10/30 02:22:11;;;;;;;18.23;10.57;;;10.40;99.90;;;;;;5039738;28;20128;-89
2021/10/30 02:24:37;;;;;;;15.45;10.35;;;10.40;99.90;;;;;;5038487;28;20021;-89
2021/10/30 02:27:03;;;;;;;19.77;12.68;;;10.40;99.90;;;;;;5043348;28;20048;-91
2021/10/30 02:29:28;;;;;;;21.10;12.50;;;10.40;99.90;;;;;;5041479;28;20495;-91
2021/10/30 02:31:54;;;;;;;19.50;13.40;;;10.50;99.90;;;;;;5044226;28;20033;-90
2021/10/30 02:34:19;;;;;;;17.45;12.25;;;10.50;99.90;;;;;;5035452;28;20040;-90
2021/10/30 02:36:45;;;;;;;18.73;12.93;;;10.50;99.90;;;;;;5043148;28;20366;-90
2021/10/30 02:39:11;;;;;;;19.00;14.20;;;10.60;99.90;;;;;;5038341;28;20408;-90
2021/10/30 02:41:38;;;;;;;20.80;13.70;;;10.60;99.90;;;;;;5044734;28;20033;-90
2021/10/30 02:44:04;;;;;;;21.40;14.73;;;10.70;99.90;;;;;;5053310;28;20104;-91
2021/10/30 02:46:30;;;;;;;18.90;14.15;;;10.70;99.90;;;;;;5058891;28;20063;-91
2021/10/30 02:48:56;;;;;;;17.80;13.68;;;10.70;99.90;;;;;;5050210;28;20116;-89
2021/10/30 02:51:22;;;;;;;25.08;14.95;;;10.80;99.90;;;;;;5041220;28;20108;-90
2021/10/30 02:53:47;;;;;;;24.27;16.02;;;10.80;99.90;;;;;;5041876;28;20047;-91
2021/10/30 02:56:13;;;;;;;20.75;14.90;;;10.90;99.90;;;;;;5048356;28;20452;-90
2021/10/30 02:58:38;;;;;;;19.88;15.02;;;10.90;99.90;;;;;;5045776;28;20021;-90
2021/10/30 03:01:05;;;;;;;23.05;14.82;;;11.00;99.90;;;;;;5050128;28;20072;-90
2021/10/30 03:03:30;;;;;;;26.38;14.13;;;11.00;99.90;;;;;;5040123;28;20772;-89
2021/10/30 03:05:56;;;;;;;19.85;14.27;;;11.10;99.90;;;;;;5035651;28;20025;-90
2021/10/30 03:08:21;;;;;;;16.58;13.43;;;11.10;99.90;;;;;;5041726;28;20017;-91
2021/10/30 03:10:47;;;;;;;16.67;12.70;;;11.20;99.90;;;;;;5043527;28;20029;-90
2021/10/30 03:13:12;;;;;;;17.40;12.95;;;11.30;99.90;;;;;;5036996;28;20067;-90
2021/10/30 03:15:38;;;;;;;17.00;12.13;;;11.30;99.90;;;;;;5027743;28;20124;-91
2021/10/30 03:18:04;;;;;;;16.38;12.27;;;11.40;99.90;;;;;;5036195;28;20017;-89
2021/10/30 03:20:29;;;;;;;15.25;11.35;;;11.40;99.90;;;;;;5041082;28;20040;-89
2021/10/30 03:22:55;;;;;;;16.65;10.93;;;11.50;99.90;;;;;;5038381;28;20025;-90
2021/10/30 03:25:41;;;;;;;17.63;11.65;;;11.50;99.90;;;;;;5041818;28;20024;-93
2021/10/30 03:28:20;;;;;;;16.10;11.93;;;11.60;99.90;;;;;;5039584;28;20041;-92
2021/10/30 03:30:46;;;;;;;15.15;11.43;;;11.60;99.90;;;;;;5043826;28;20032;-90
2021/10/30 03:33:12;;;;;;;16.58;11.63;;;11.60;99.90;;;;;;5034834;28;20025;-91
2021/10/30 03:35:38;;;;;;;12.68;10.82;;;11.60;99.90;;;;;;5036847;28;20048;-90
2021/10/30 03:38:04;;;;;;;13.90;10.95;;;11.70;99.90;;;;;;5041298;28;20035;-90
2021/10/30 03:40:31;;;;;;;16.08;10.93;;;11.70;99.90;;;;;;5050206;28;20051;-90
2021/10/30 03:42:56;;;;;;;18.73;11.23;;;11.70;99.90;;;;;;5041467;28;20400;-90
2021/10/30 03:45:22;;;;;;;15.82;10.50;;;11.70;99.90;;;;;;5050771;28;20455;-89
2021/10/30 03:47:48;;;;;;;19.92;9.77;;;11.70;99.90;;;;;;5038654;28;20400;-90
2021/10/30 03:50:14;;;;;;;12.90;9.38;;;11.70;99.90;;;;;;5041652;28;20047;-90
2021/10/30 03:52:39;;;;;;;14.18;10.32;;;11.70;99.90;;;;;;5045574;28;20025;-89
2021/10/30 03:55:06;;;;;;;14.70;9.90;;;11.70;99.90;;;;;;5042081;28;20034;-90
2021/10/30 03:57:31;;;;;;;13.82;9.77;;;11.80;99.90;;;;;;5043215;28;20430;-90
2021/10/30 03:59:57;;;;;;;14.18;10.25;;;11.70;99.90;;;;;;5034812;28;20044;-91
2021/10/30 04:02:23;;;;;;;16.85;10.23;;;11.80;99.90;;;;;;5034484;28;20087;-90
2021/10/30 04:04:48;;;;;;;15.05;10.68;;;11.80;99.90;;;;;;5050598;28;20020;-90
2021/10/30 04:07:14;;;;;;;12.63;9.32;;;11.80;99.90;;;;;;5046920;28;20049;-91
2021/10/30 04:09:39;;;;;;;16.00;10.23;;;11.80;99.90;;;;;;5052478;28;20060;-91
2021/10/30 04:12:05;;;;;;;12.85;9.75;;;11.80;99.90;;;;;;5052551;28;20037;-91
2021/10/30 04:14:31;;;;;;;15.65;10.63;;;11.90;99.90;;;;;;5043233;28;20037;-91
2021/10/30 04:16:56;;;;;;;15.88;9.98;;;11.80;99.90;;;;;;5051179;28;20163;-92
2021/10/30 04:19:22;;;;;;;13.63;9.57;;;11.90;99.90;;;;;;5057026;28;20586;-92
2021/10/30 04:21:47;;;;;;;14.68;9.88;;;11.90;99.90;;;;;;5036060;28;20025;-92
2021/10/30 04:24:13;;;;;;;14.70;9.90;;;11.90;99.90;;;;;;5034436;28;20021;-91
2021/10/30 04:26:39;;;;;;;14.63;9.40;;;11.90;99.90;;;;;;5051246;28;20451;-92
2021/10/30 04:29:05;;;;;;;17.75;10.00;;;11.90;99.90;;;;;;5043509;28;20039;-92
2021/10/30 04:31:31;;;;;;;16.08;11.25;;;11.90;99.90;;;;;;5033985;28;20116;-93
2021/10/30 04:34:02;;;;;;;15.95;10.82;;;11.90;99.90;;;;;;5030436;28;20086;-92
2021/10/30 04:36:30;;;;;;;16.33;10.20;;;11.90;99.90;;;;;;5047464;28;20060;-92
2021/10/30 04:38:56;;;;;;;17.52;10.55;;;11.90;99.90;;;;;;5035256;28;20477;-92
2021/10/30 04:41:22;;;;;;;14.82;10.70;;;11.90;99.90;;;;;;5045783;28;20040;-92
2021/10/30 04:43:48;;;;;;;15.52;10.15;;;11.90;99.90;;;;;;5051713;28;20024;-91
2021/10/30 04:46:15;;;;;;;16.27;10.10;;;11.90;99.90;;;;;;5052262;28;20028;-89
2021/10/30 04:48:41;;;;;;;14.75;10.10;;;11.90;99.90;;;;;;5052361;28;20103;-91
2021/10/30 04:51:07;;;;;;;17.75;10.20;;;11.90;99.90;;;;;;5050788;28;20079;-92
2021/10/30 04:53:34;;;;;;;14.13;9.77;;;11.80;99.90;;;;;;5051830;28;20025;-92
2021/10/30 04:56:01;;;;;;;15.57;9.45;;;11.80;99.90;;;;;;5037495;28;20074;-91
2021/10/30 04:58:27;;;;;;;14.20;9.90;;;11.80;99.90;;;;;;5040002;28;20029;-91
2021/10/30 05:00:53;;;;;;;13.55;9.52;;;11.90;99.90;;;;;;5050447;28;20086;-91
2021/10/30 05:03:19;;;;;;;12.85;9.02;;;11.80;99.90;;;;;;5040717;28;20404;-90
2021/10/30 05:06:04;;;;;;;14.77;9.65;;;11.80;99.90;;;;;;5049794;28;20039;-91
2021/10/30 05:08:29;;;;;;;14.82;9.95;;;11.80;99.90;;;;;;5034183;28;20040;-90
2021/10/30 05:10:55;;;;;;;15.57;9.52;;;11.80;99.90;;;;;;5027642;28;20021;-90
2021/10/30 05:13:20;;;;;;;13.15;9.68;;;11.80;99.90;;;;;;5029841;28;20021;-93
2021/10/30 05:15:46;;;;;;;14.50;9.57;;;11.80;99.90;;;;;;5035480;28;20048;-93
2021/10/30 05:18:12;;;;;;;17.95;9.73;;;11.80;99.90;;;;;;5037700;28;21228;-91
2021/10/30 05:20:37;;;;;;;19.23;9.80;;;11.70;99.90;;;;;;5034257;28;20040;-91
2021/10/30 05:23:03;;;;;;;14.30;9.68;;;11.70;99.90;;;;;;5027506;28;20108;-91
2021/10/30 05:25:28;;;;;;;14.32;9.45;;;11.70;99.90;;;;;;5028652;28;20017;-91
2021/10/30 05:27:54;;;;;;;16.58;9.35;;;11.70;99.90;;;;;;5028368;28;20036;-91
2021/10/30 05:30:19;;;;;;;14.70;9.35;;;11.60;99.90;;;;;;5025643;28;20043;-90
2021/10/30 05:32:45;;;;;;;15.60;9.38;;;11.60;99.90;;;;;;5043126;28;20167;-92
2021/10/30 05:35:10;;;;;;;13.05;9.10;;;11.60;99.90;;;;;;5033629;28;20060;-93
2021/10/30 05:37:36;;;;;;;16.88;9.55;;;11.60;99.90;;;;;;5031617;28;20058;-92
2021/10/30 05:40:06;;;;;;;14.05;9.40;;;11.60;99.90;;;;;;5034878;28;20108;-93
2021/10/30 05:42:35;;;;;;;14.50;9.43;;;11.50;99.90;;;;;;5034884;28;20044;-93
2021/10/30 05:45:02;;;;;;;16.08;10.98;;;11.50;99.90;;;;;;5035001;28;20021;-92
2021/10/30 05:47:28;;;;;;;15.75;10.45;;;11.50;99.90;;;;;;5047797;28;20545;-94
2021/10/30 05:50:04;;;;;;;15.25;9.52;;;11.50;99.90;;;;;;5033528;28;20119;-91
2021/10/30 05:52:37;;;;;;;14.52;9.85;;;11.50;99.90;;;;;;5050324;28;20017;-92
2021/10/30 05:55:03;;;;;;;17.92;9.35;;;11.50;99.90;;;;;;5033602;28;20086;-92
2021/10/30 05:57:31;;;;;;;14.88;9.75;;;11.40;99.90;;;;;;5035955;28;20071;-91
2021/10/30 05:59:57;;;;;;;20.13;11.07;;;11.40;99.90;;;;;;5038518;28;20033;-90
2021/10/30 06:02:23;;;;;;;14.93;10.23;;;11.40;99.90;;;;;;5049940;28;20068;-91
2021/10/30 06:04:49;;;;;;;16.08;11.48;;;11.40;99.90;;;;;;5038713;28;20693;-91
2021/10/30 06:07:14;;;;;;;15.45;10.75;;;11.40;99.90;;;;;;5046851;28;20021;-90
2021/10/30 06:09:40;;;;;;;16.08;11.50;;;11.40;99.90;;;;;;5046664;28;20556;-89
2021/10/30 06:12:06;;;;;;;17.63;10.80;;;11.30;99.90;;;;;;5034625;28;20043;-89
2021/10/30 06:14:32;;;;;;;27.40;11.50;;;11.30;99.90;;;;;;5037040;28;20048;-91
2021/10/30 06:17:00;;;;;;;17.30;11.60;;;11.30;99.90;;;;;;5049302;28;20481;-91
2021/10/30 06:19:31;;;;;;;18.75;11.82;;;11.30;99.90;;;;;;5035283;28;20162;-92
2021/10/30 06:21:58;;;;;;;16.98;11.35;;;11.30;99.90;;;;;;5044767;28;20029;-90
2021/10/30 06:24:23;;;;;;;17.92;11.82;;;11.30;99.90;;;;;;5029074;28;20025;-91
2021/10/30 06:26:49;;;;;;;20.45;11.73;;;11.30;99.90;;;;;;5037219;28;20105;-91
2021/10/30 06:29:14;;;;;;;18.52;12.90;;;11.30;99.90;;;;;;5035560;28;20033;-86
2021/10/30 06:31:40;;;;;;;22.45;13.25;;;11.30;99.90;;;;;;5039148;28;20092;-89
2021/10/30 06:34:05;;;;;;;22.08;13.75;;;11.30;99.90;;;;;;5040601;28;20039;-89
2021/10/30 06:36:31;;;;;;;23.35;13.77;;;11.30;99.90;;;;;;5040118;28;20075;-90
2021/10/30 06:38:57;;;;;;;22.00;14.55;;;11.30;99.90;;;;;;5033267;28;20025;-89
2021/10/30 06:41:22;;;;;;;23.05;14.40;;;11.30;99.90;;;;;;5035689;28;20558;-90
2021/10/30 06:43:48;;;;;;;19.85;12.60;;;11.30;99.90;;;;;;5034393;28;20025;-89
2021/10/30 06:46:13;;;;;;;19.70;13.25;;;11.30;99.90;;;;;;5052814;28;20025;-90
2021/10/30 06:48:39;;;;;;;21.27;13.88;;;11.30;99.90;;;;;;5036884;28;20504;-91
2021/10/30 06:51:05;;;;;;;22.38;14.20;;;11.30;99.90;;;;;;5034195;28;20393;-90
2021/10/30 06:53:32;;;;;;;23.00;13.98;;;11.30;99.90;;;;;;5036313;28;20021;-91
2021/10/30 06:55:58;;;;;;;19.80;13.93;;;11.40;99.90;;;;;;5034286;28;20033;-91
2021/10/30 06:58:28;;;;;;;22.52;14.05;;;11.40;99.90;;;;;;5036085;28;20389;-91
2021/10/30 07:00:54;;;;;;;22.05;13.48;;;11.40;99.90;;;;;;5048815;28;20041;-90
2021/10/30 07:03:20;;;;;;;20.65;13.68;;;11.40;99.90;;;;;;5040165;28;20025;-91
2021/10/30 07:05:46;;;;;;;23.45;14.35;;;11.40;99.90;;;;;;5040529;28;20493;-90
2021/10/30 07:08:11;;;;;;;19.77;12.63;;;11.40;99.90;;;;;;5031657;28;20048;-91
2021/10/30 07:10:37;;;;;;;20.85;14.18;;;11.40;99.90;;;;;;5034350;28;20033;-92
2021/10/30 07:13:02;;;;;;;20.90;12.63;;;11.40;99.90;;;;;;5035548;28;20029;-91
2021/10/30 07:15:28;;;;;;;21.83;13.10;;;11.40;99.90;;;;;;5036178;28;20079;-89
2021/10/30 07:17:53;;;;;;;23.55;13.65;;;11.40;99.90;;;;;;5035630;28;20121;-90
2021/10/30 07:20:19;;;;;;;19.17;13.45;;;11.40;99.90;;;;;;5034871;28;20041;-90
2021/10/30 07:22:46;;;;;;;20.30;12.98;;;11.40;99.90;;;;;;5032436;28;20032;-89
2021/10/30 07:25:12;;;;;;;21.58;14.13;;;11.50;99.90;;;;;;5034461;28;20060;-89
2021/10/30 07:27:38;;;;;;;22.27;13.98;;;11.50;99.90;;;;;;5038607;28;20028;-91
2021/10/30 07:30:08;;;;;;;19.58;12.93;;;11.50;99.90;;;;;;5041803;28;20128;-90
2021/10/30 07:32:33;;;;;;;17.83;12.73;;;11.50;99.90;;;;;;5040818;28;20033;-91
2021/10/30 07:34:59;;;;;;;22.00;13.10;;;11.50;99.90;;;;;;5036055;28;20025;-92
2021/10/30 07:37:25;;;;;;;16.20;10.98;;;11.50;99.90;;;;;;5039789;28;20070;-91
2021/10/30 07:39:51;;;;;;;19.95;11.40;;;11.60;99.90;;;;;;5030011;28;20497;-90
2021/10/30 07:42:17;;;;;;;20.67;10.93;;;11.60;99.90;;;;;;5046525;28;20036;-89
2021/10/30 07:44:42;;;;;;;20.15;12.18;;;11.60;99.90;;;;;;5039784;28;20037;-91
2021/10/30 07:47:08;;;;;;;17.33;10.20;;;11.60;99.90;;;;;;5035907;28;20032;-90
2021/10/30 07:49:34;;;;;;;17.20;9.65;;;11.60;99.90;;;;;;5038543;28;20078;-89
2021/10/30 07:52:05;;;;;;;16.88;10.00;;;11.70;99.90;;;;;;5048620;28;20120;-90
2021/10/30 07:54:32;;;;;;;13.00;9.20;;;11.70;99.90;;;;;;5039861;28;20041;-91
2021/10/30 07:56:57;;;;;;;18.10;10.70;;;11.80;99.90;;;;;;5034908;28;20029;-89
2021/10/30 07:59:23;;;;;;;14.80;8.68;;;11.80;99.90;;;;;;5035108;28;20094;-90
2021/10/30 08:01:52;;;;;;;15.68;9.88;;;11.70;99.90;;;;;;5035690;28;20108;-91
2021/10/30 08:04:19;;;;;;;14.98;8.88;;;11.80;99.90;;;;;;5035332;28;20028;-91
2021/10/30 08:06:45;;;;;;;13.75;9.88;;;11.80;99.90;;;;;;5036381;28;20504;-90
2021/10/30 08:09:10;;;;;;;11.02;7.53;;;11.90;99.90;;;;;;5039575;28;20025;-90
2021/10/30 08:11:36;;;;;;;11.15;8.35;;;11.90;99.90;;;;;;5051670;28;20036;-89
2021/10/30 08:14:02;;;;;;;13.65;9.30;;;11.90;99.90;;;;;;5052632;28;20044;-89
2021/10/30 08:16:28;;;;;;;14.13;8.80;;;11.90;99.90;;;;;;5038657;28;20025;-88
2021/10/30 08:18:54;;;;;;;12.73;9.05;;;11.90;99.90;;;;;;5038061;28;20097;-86
2021/10/30 08:21:20;;;;;;;12.65;8.40;;;11.90;99.90;;;;;;5034465;28;20059;-89
2021/10/30 08:23:46;;;;;;;15.95;9.20;;;12.00;99.90;;;;;;5031988;28;20029;-89
2021/10/30 08:26:12;;;;;;;13.35;8.57;;;12.00;99.90;;;;;;5044970;28;20039;-90
2021/10/30 08:28:38;;;;;;;13.63;8.52;;;12.00;99.90;;;;;;5035287;28;20025;-89
2021/10/30 08:31:04;;;;;;;11.95;8.27;;;12.00;99.90;;;;;;5029088;28;20121;-89
2021/10/30 08:33:30;;;;;;;12.48;8.82;;;12.00;99.90;;;;;;5031845;28;20029;-91
2021/10/30 08:35:55;;;;;;;11.02;7.97;;;12.00;99.90;;;;;;5033281;28;20419;-89
2021/10/30 08:38:21;;;;;;;12.65;7.78;;;12.00;99.90;;;;;;5028386;28;20536;-88
2021/10/30 08:40:47;;;;;;;12.63;7.75;;;12.00;99.90;;;;;;5029986;28;20039;-88
2021/10/30 08:43:24;;;;;;;14.70;9.10;;;12.10;99.90;;;;;;5031878;28;20455;-90
2021/10/30 08:45:50;;;;;;;13.35;7.78;;;12.10;99.90;;;;;;5031105;28;20773;-90
2021/10/30 08:48:19;;;;;;;10.93;7.45;;;12.10;99.90;;;;;;5056223;28;20029;-90
2021/10/30 08:50:46;;;;;;;11.18;7.18;;;12.20;99.90;;;;;;5039956;28;20079;-89
2021/10/30 08:53:12;;;;;;;10.57;7.13;;;12.20;99.90;;;;;;5039359;28;20083;-90
2021/10/30 08:55:38;;;;;;;13.23;7.57;;;12.20;99.90;;;;;;5029269;28;20655;-90
2021/10/30 08:58:09;;;;;;;9.85;7.45;;;12.20;99.90;;;;;;5029561;28;20029;-90
2021/10/30 09:00:42;;;;;;;11.43;7.07;;;12.30;99.90;;;;;;5031113;28;20037;-90
2021/10/30 09:03:10;;;;;;;9.60;6.57;;;12.30;99.90;;;;;;5035137;28;20497;-89
2021/10/30 09:05:36;;;;;;;11.90;6.60;;;12.30;99.90;;;;;;5048350;28;20020;-89
2021/10/30 09:08:04;;;;;;;9.20;6.60;;;12.30;99.90;;;;;;5034576;28;20071;-89
2021/10/30 09:10:36;;;;;;;8.88;6.45;;;12.40;99.90;;;;;;5037196;28;20166;-89
2021/10/30 09:13:05;;;;;;;8.23;6.70;;;12.40;99.90;;;;;;5034568;28;20107;-88
2021/10/30 09:15:38;;;;;;;9.35;6.95;;;12.40;99.90;;;;;;5050584;28;20115;-89
2021/10/30 09:18:04;;;;;;;;;;;12.40;99.90;;;;;;5052260;28;20032;-89
2021/10/30 09:20:31;;;;;;;8.77;6.35;;;12.50;99.90;;;;;;5042653;28;19909;-90
2021/10/30 09:22:58;;;;;;;9.80;6.25;;;12.50;99.90;;;;;;5048720;28;20029;-90
2021/10/30 09:25:24;;;;;;;8.13;6.18;;;12.60;99.90;;;;;;5048380;28;20021;-88
2021/10/30 09:27:56;;;;;;;8.93;6.18;;;12.60;99.90;;;;;;5036139;28;20385;-89
2021/10/30 09:30:33;;;;;;;9.65;6.55;;;12.60;99.90;;;;;;5037466;28;20025;-90
2021/10/30 09:33:06;;;;;;;9.52;5.53;;;12.70;99.90;;;;;;5035450;28;20041;-89
2021/10/30 09:35:33;;;;;;;8.90;6.35;;;12.70;99.90;;;;;;5041137;28;20033;-87
2021/10/30 09:37:59;;;;;;;9.80;6.13;;;12.70;99.90;;;;;;5040860;28;20047;-88
2021/10/30 09:40:27;;;;;;;8.70;6.00;;;12.80;99.90;;;;;;5037951;28;20160;-88
2021/10/30 09:43:08;;;;;;;7.78;5.85;;;12.80;99.90;;;;;;5033806;28;20021;-89
2021/10/30 09:45:43;;;;;;;10.25;5.30;;;12.80;99.90;;;;;;5038747;28;20036;-88
2021/10/30 09:48:12;;;;;;;8.43;5.85;;;12.80;99.90;;;;;;5041228;28;20033;-88
2021/10/30 09:50:42;;;;;;;7.28;5.28;;;12.90;99.90;;;;;;5041678;28;21809;-89
2021/10/30 09:53:25;;;;;;;9.60;4.63;;;12.90;99.90;;;;;;5043605;28;20052;-88
2021/10/30 09:56:12;;;;;;;8.32;5.55;;;12.90;99.90;;;;;;5055301;28;20102;-87
2021/10/30 09:58:41;;;;;;;8.02;5.10;;;12.90;99.90;;;;;;5054034;28;20037;-89
2021/10/30 10:01:15;;;;;;;11.18;6.03;;;13.00;99.90;;;;;;5052924;28;21504;-89
2021/10/30 10:03:42;;;;;;;7.65;4.88;;;13.00;99.90;;;;;;5040450;28;20032;-88
2021/10/30 10:06:10;;;;;;;8.20;4.78;;;13.00;99.90;;;;;;5041757;28;20035;-89
2021/10/30 10:08:40;;;;;;;5.60;4.22;;;13.00;99.90;;;;;;5034444;28;20029;-88
2021/10/30 10:11:08;;;;;;;5.38;4.03;;;13.00;99.90;;;;;;5038086;28;20052;-89
2021/10/30 10:13:39;;;;;;;6.25;4.57;;;13.10;99.90;;;;;;5039468;28;20021;-89
2021/10/30 10:16:16;;;;;;;7.90;5.57;;;13.10;99.90;;;;;;5035704;28;20078;-89
2021/10/30 10:18:43;;;;;;;10.60;4.80;;;13.10;99.90;;;;;;5041373;28;20024;-89
2021/10/30 10:21:12;;;;;;;6.97;4.55;;;13.10;99.90;;;;;;5037360;28;20037;-88
2021/10/30 10:23:41;;;;;;;8.15;5.03;;;13.10;99.90;;;;;;5040655;28;20029;-88
2021/10/30 10:26:07;;;;;;;8.23;4.05;;;13.10;99.90;;;;;;5056787;28;20071;-89
2021/10/30 10:28:34;;;;;;;7.72;5.03;;;13.10;99.90;;;;;;5039393;28;20029;-88
2021/10/30 10:31:24;;;;;;;6.72;4.93;;;13.00;99.90;;;;;;5055737;28;20144;-89
2021/10/30 10:34:09;;;;;;;6.75;4.85;;;13.10;99.90;;;;;;5055834;28;20083;-88
2021/10/30 10:36:37;;;;;;;6.32;4.85;;;13.10;99.90;;;;;;5047326;28;20527;-88
2021/10/30 10:39:03;;;;;;;6.60;4.28;;;13.10;99.90;;;;;;5055404;28;20028;-88
2021/10/30 10:41:37;;;;;;;4.97;3.85;;;13.10;99.90;;;;;;5041218;28;20476;-88
2021/10/30 10:44:37;;;;;;;6.85;4.32;;;13.10;99.90;;;;;;5053036;28;20071;-89
2021/10/30 10:47:04;;;;;;;6.32;4.05;;;13.20;99.90;;;;;;5054634;28;20029;-89
2021/10/30 10:49:47;;;;;;;6.68;3.95;;;13.10;99.90;;;;;;5050902;28;20396;-88
2021/10/30 10:52:23;;;;;;;7.03;4.55;;;13.20;99.90;;;;;;5058540;28;20025;-89
2021/10/30 10:54:55;;;;;;;4.47;3.58;;;13.20;99.90;;;;;;5042414;28;20036;-89
2021/10/30 10:57:31;;;;;;;5.15;3.60;;;13.20;99.90;;;;;;5056474;28;20067;-89
2021/10/30 11:00:15;;;;;;;6.38;3.75;;;13.20;99.90;;;;;;5044377;28;20374;-88
2021/10/30 11:02:46;;;;;;;5.50;3.60;;;13.20;99.90;;;;;;5054495;28;20044;-88
2021/10/30 11:05:18;;;;;;;5.60;4.17;;;13.20;99.90;;;;;;5054206;28;20040;-87
2021/10/30 11:08:01;;;;;;;6.10;4.28;;;13.20;99.90;;;;;;5051154;28;20028;-87
2021/10/30 11:10:32;;;;;;;5.70;3.53;;;13.20;99.90;;;;;;5037594;28;20112;-89
2021/10/30 11:13:09;;;;;;;5.23;3.43;;;13.20;99.90;;;;;;5041457;28;20055;-86
2021/10/30 11:15:40;;;;;;;7.80;4.30;;;13.20;99.90;;;;;;5047071;28;20064;-89
2021/10/30 11:18:20;;;;;;;5.43;3.47;;;13.30;99.90;;;;;;5061183;28;20107;-90
2021/10/30 11:21:04;;;;;;;5.72;3.33;;;13.30;99.90;;;;;;5045651;28;20443;-88
2021/10/30 11:23:31;;;;;;;6.05;3.38;;;13.30;99.90;;;;;;5049420;28;20032;-89
2021/10/30 11:26:07;;;;;;;5.07;3.53;;;13.30;99.90;;;;;;5042566;28;20029;-88
2021/10/30 11:28:34;;;;;;;5.57;3.10;;;13.30;99.90;;;;;;5056237;28;20048;-89
2021/10/30 11:31:20;;;;;;;6.78;4.00;;;13.30;99.90;;;;;;5043380;28;20032;-90
2021/10/30 11:34:03;;;;;;;5.90;3.33;;;13.40;99.90;;;;;;5066749;28;20024;-89
2021/10/30 11:36:31;;;;;;;6.28;3.90;;;13.50;99.90;;;;;;5050059;28;20025;-89
2021/10/30 11:38:59;;;;;;;5.18;3.58;;;13.50;99.90;;;;;;5062099;28;20033;-89
2021/10/30 11:41:27;;;;;;;5.47;3.95;;;13.50;99.90;;;;;;5039307;28;20027;-89
2021/10/30 11:44:08;;;;;;;4.53;3.13;;;13.60;99.90;;;;;;5033885;28;20032;-89
2021/10/30 11:46:53;;;;;;;6.20;3.10;;;13.60;99.90;;;;;;5053673;28;20028;-89
2021/10/30 11:49:28;;;;;;;5.38;3.10;;;13.70;99.90;;;;;;5052370;28;20084;-89
2021/10/30 11:51:59;;;;;;;4.25;2.90;;;13.70;99.90;;;;;;5048425;28;20539;-89
2021/10/30 11:54:25;;;;;;;5.55;2.78;;;13.80;99.90;;;;;;5031836;28;20024;-89
2021/10/30 11:56:52;;;;;;;3.65;2.55;;;13.80;99.90;;;;;;5050818;28;20550;-89
2021/10/30 11:59:18;;;;;;;5.13;3.15;;;13.80;99.90;;;;;;5031516;28;20029;-89
2021/10/30 12:01:48;;;;;;;4.90;3.05;;;13.80;99.90;;;;;;5035080;28;20095;-89
2021/10/30 12:04:24;;;;;;;5.10;3.80;;;13.90;99.90;;;;;;5025178;28;20037;-88
2021/10/30 12:06:55;;;;;;;4.95;3.08;;;13.90;99.90;;;;;;5034599;28;20052;-89
2021/10/30 12:09:22;;;;;;;5.07;3.20;;;14.00;99.90;;;;;;5034465;28;20029;-89
2021/10/30 12:11:49;;;;;;;8.80;3.13;;;14.10;99.90;;;;;;5033274;28;20026;-90
2021/10/30 12:14:33;;;;;;;4.47;2.70;;;14.20;99.90;;;;;;5049695;28;20059;-89
2021/10/30 12:17:00;;;;;;;3.70;2.92;;;14.30;99.90;;;;;;5049724;28;20025;-90
2021/10/30 12:19:30;;;;;;;5.63;2.70;;;14.30;99.90;;;;;;5033269;28;20037;-90
2021/10/30 12:22:08;;;;;;;4.30;2.90;;;14.40;99.90;;;;;;5034212;28;20026;-90
2021/10/30 12:24:35;;;;;;;5.47;3.42;;;14.50;99.90;;;;;;5045263;28;20052;-90
2021/10/30 12:27:03;;;;;;;3.92;3.05;;;14.40;99.90;;;;;;5030189;28;20029;-89
2021/10/30 12:29:31;;;;;;;6.85;2.95;;;14.50;99.90;;;;;;5032562;28;20021;-90
2021/10/30 12:32:02;;;;;;;3.72;2.25;;;14.50;99.90;;;;;;5035533;28;20092;-90
2021/10/30 12:34:32;;;;;;;3.45;2.25;;;14.60;99.90;;;;;;5046777;28;20396;-90
2021/10/30 12:37:02;;;;;;;3.83;2.60;;;14.60;99.90;;;;;;5032781;28;20025;-89
2021/10/30 12:39:28;;;;;;;6.40;2.17;;;14.70;99.90;;;;;;5032890;28;20065;-89